createdAt,value
2017-11-09T00:00:13.062Z,110.50
2017-11-09T00:02:46.138Z,111.37
2017-11-09T00:05:19.369Z,101.27
2017-11-09T00:07:46.896Z,104.70
2017-11-09T00:10:14.481Z,99.80
2017-11-09T00:12:42.329Z,103.60
2017-11-09T00:15:09.848Z,123.00
2017-11-09T00:17:40.250Z,114.40
2017-11-09T00:20:07.831Z,118.40
2017-11-09T00:22:35.374Z,114.13
2017-11-09T00:25:02.908Z,107.87
2017-11-09T00:27:30.569Z,122.23
2017-11-09T00:29:58.115Z,96.80
2017-11-09T00:32:25.650Z,116.83
2017-11-09T00:34:53.309Z,95.40
2017-11-09T00:37:20.829Z,104.57
2017-11-09T00:39:48.356Z,105.63
2017-11-09T00:42:16.038Z,118.77
2017-11-09T00:44:43.567Z,124.80
2017-11-09T00:47:11.090Z,124.20
2017-11-09T00:49:38.798Z,133.07
2017-11-09T00:52:06.330Z,113.80
2017-11-09T00:54:33.861Z,111.93
2017-11-09T00:57:01.411Z,118.00
2017-11-09T00:59:29.002Z,106.80
2017-11-09T01:01:56.543Z,115.17
2017-11-09T01:04:24.084Z,110.33
2017-11-09T01:06:52.033Z,116.00
2017-11-09T01:09:19.576Z,128.30
2017-11-09T01:11:47.115Z,112.30
2017-11-09T01:14:14.827Z,98.60
2017-11-09T01:16:42.350Z,109.23
2017-11-09T01:19:09.906Z,99.03
2017-11-09T01:21:37.478Z,119.17
2017-11-09T01:24:05.067Z,107.30
2017-11-09T01:26:32.605Z,107.47
2017-11-09T01:29:00.319Z,123.23
2017-11-09T01:31:28.412Z,96.83
2017-11-09T01:33:55.964Z,100.47
2017-11-09T01:36:23.503Z,109.57
2017-11-09T01:38:51.053Z,118.73
2017-11-09T01:41:18.805Z,104.80
2017-11-09T01:43:46.340Z,107.63
2017-11-09T01:46:13.867Z,100.03
2017-11-09T01:48:41.439Z,92.60
2017-11-09T01:51:08.979Z,106.90
2017-11-09T01:53:36.502Z,100.80
2017-11-09T01:56:04.115Z,113.17
2017-11-09T01:58:31.647Z,104.07
2017-11-09T02:00:59.207Z,107.43
2017-11-09T02:03:26.834Z,111.10
2017-11-09T02:05:54.392Z,96.67
2017-11-09T02:08:21.911Z,88.87
2017-11-09T02:10:49.490Z,94.90
2017-11-09T02:13:17.025Z,95.03
2017-11-09T02:15:44.547Z,97.20
2017-11-09T02:18:12.137Z,109.40
2017-11-09T02:20:39.687Z,98.80
2017-11-09T02:23:07.768Z,97.30
2017-11-09T02:25:35.317Z,118.33
2017-11-09T02:28:02.879Z,110.03
2017-11-09T02:30:30.786Z,96.77
2017-11-09T02:32:58.357Z,99.30
2017-11-09T02:35:25.883Z,97.40
2017-11-09T02:37:53.442Z,105.57
2017-11-09T02:40:21.383Z,115.10
2017-11-09T02:42:48.929Z,113.70
2017-11-09T02:45:16.475Z,115.50
2017-11-09T02:47:44.199Z,103.63
2017-11-09T02:50:11.764Z,103.03
2017-11-09T02:52:39.295Z,99.13
2017-11-09T02:55:06.891Z,127.77
2017-11-09T02:57:34.432Z,126.90
2017-11-09T03:00:02.134Z,108.47
2017-11-09T03:02:29.848Z,95.57
2017-11-09T03:04:57.365Z,98.57
2017-11-09T03:07:24.893Z,102.43
2017-11-09T03:09:52.491Z,110.73
2017-11-09T03:12:20.023Z,123.27
2017-11-09T03:14:47.582Z,107.13
2017-11-09T03:17:15.162Z,103.50
2017-11-09T03:19:42.690Z,104.43
2017-11-09T03:22:10.219Z,94.73
2017-11-09T03:24:37.903Z,87.77
2017-11-09T03:27:05.448Z,104.13
2017-11-09T03:29:32.975Z,98.87
2017-11-09T03:32:00.756Z,94.40
2017-11-09T03:34:28.304Z,104.87
2017-11-09T03:36:55.839Z,101.97
2017-11-09T03:39:23.378Z,93.73
2017-11-09T03:41:50.908Z,95.27
2017-11-09T03:44:18.687Z,97.13
2017-11-09T03:46:46.243Z,118.40
2017-11-09T03:49:13.769Z,91.97
2017-11-09T03:51:41.392Z,111.33
2017-11-09T03:54:08.919Z,101.73
2017-11-09T03:56:36.454Z,96.63
2017-11-09T03:59:04.425Z,101.03
2017-11-09T04:01:31.950Z,86.47
2017-11-09T04:03:59.471Z,89.73
2017-11-09T04:06:27.025Z,103.30
2017-11-09T04:08:54.591Z,85.43
2017-11-09T04:11:22.124Z,84.43
2017-11-09T04:13:49.681Z,82.50
2017-11-09T04:16:17.227Z,107.13
2017-11-09T04:18:44.752Z,98.77
2017-11-09T04:21:12.307Z,106.13
2017-11-09T04:23:39.852Z,139.33
2017-11-09T04:26:07.430Z,335.80
2017-11-09T04:28:34.958Z,274.77
2017-11-09T04:31:02.503Z,191.83
2017-11-09T04:33:30.260Z,264.37
2017-11-09T04:35:57.803Z,300.07
2017-11-09T04:38:25.339Z,365.17
2017-11-09T04:40:52.895Z,343.00
2017-11-09T04:43:20.490Z,305.63
2017-11-09T04:45:48.031Z,243.13
2017-11-09T04:48:15.552Z,389.03
2017-11-09T04:50:43.111Z,339.43
2017-11-09T04:53:10.651Z,386.47
2017-11-09T04:55:38.209Z,434.17
2017-11-09T04:58:05.767Z,378.10
2017-11-09T05:00:33.290Z,418.20
2017-11-09T05:03:01.010Z,359.73
2017-11-09T05:05:28.538Z,291.57
2017-11-09T05:07:56.079Z,321.20
2017-11-09T05:10:23.666Z,319.40
2017-11-09T05:12:51.239Z,272.33
2017-11-09T05:15:18.772Z,371.13
2017-11-09T05:17:46.872Z,346.67
2017-11-09T05:20:14.410Z,442.30
2017-11-09T05:22:41.934Z,401.83
2017-11-09T05:25:09.521Z,306.33
2017-11-09T05:27:37.068Z,530.23
2017-11-09T05:30:04.654Z,347.87
2017-11-09T05:32:32.706Z,395.10
2017-11-09T05:35:00.267Z,303.77
2017-11-09T05:37:27.803Z,283.67
2017-11-09T05:39:55.365Z,230.53
2017-11-09T05:42:22.962Z,187.90
2017-11-09T05:44:50.490Z,275.03
2017-11-09T05:47:18.018Z,271.43
2017-11-09T05:49:45.586Z,310.73
2017-11-09T05:52:13.131Z,266.77
2017-11-09T05:54:40.685Z,377.17
2017-11-09T05:57:08.456Z,278.20
2017-11-09T05:59:35.981Z,244.00
2017-11-09T06:02:03.510Z,271.63
2017-11-09T06:04:31.567Z,282.20
2017-11-09T06:06:59.098Z,219.93
2017-11-09T06:09:26.628Z,387.87
2017-11-09T06:11:54.392Z,283.87
2017-11-09T06:14:21.934Z,244.10
2017-11-09T06:16:49.462Z,219.63
2017-11-09T06:19:17.042Z,184.23
2017-11-09T06:21:44.567Z,150.03
2017-11-09T06:24:12.093Z,162.00
2017-11-09T06:26:39.758Z,138.20
2017-11-09T06:29:07.272Z,135.70
2017-11-09T06:31:34.802Z,122.80
2017-11-09T06:34:02.811Z,116.47
2017-11-09T06:36:30.334Z,133.97
2017-11-09T06:38:57.863Z,128.47
2017-11-09T06:41:25.565Z,136.03
2017-11-09T06:43:53.080Z,142.33
2017-11-09T06:46:20.611Z,138.60
2017-11-09T06:48:48.181Z,142.83
2017-11-09T06:51:15.702Z,144.60
2017-11-09T06:53:43.234Z,147.43
2017-11-09T06:56:10.789Z,151.50
2017-11-09T06:58:38.310Z,142.33
2017-11-09T07:01:05.898Z,161.73
2017-11-09T07:03:33.426Z,148.50
2017-11-09T07:06:00.962Z,159.33
2017-11-09T07:08:28.555Z,162.50
2017-11-09T07:10:56.073Z,161.93
2017-11-09T07:13:23.601Z,216.93
2017-11-09T07:15:51.191Z,151.67
2017-11-09T07:18:18.709Z,162.73
2017-11-09T07:20:46.249Z,170.57
2017-11-09T07:23:14.001Z,201.00
2017-11-09T07:25:41.542Z,182.03
2017-11-09T07:28:09.075Z,198.93
2017-11-09T07:30:36.637Z,219.40
2017-11-09T07:33:04.187Z,233.23
2017-11-09T07:35:31.745Z,225.43
2017-11-09T07:37:59.652Z,240.87
2017-11-09T07:40:27.174Z,243.40
2017-11-09T07:42:54.701Z,186.90
2017-11-09T07:45:22.389Z,191.87
2017-11-09T07:47:49.911Z,205.87
2017-11-09T07:50:17.450Z,213.30
2017-11-09T07:52:45.044Z,186.43
2017-11-09T07:55:12.570Z,237.43
2017-11-09T07:57:40.089Z,219.43
2017-11-09T08:00:07.643Z,193.23
2017-11-09T08:02:35.174Z,222.23
2017-11-09T08:05:02.726Z,196.90
2017-11-09T08:07:30.249Z,216.50
2017-11-09T08:09:57.971Z,250.80
2017-11-09T08:12:25.493Z,222.70
2017-11-09T08:14:53.014Z,195.73
2017-11-09T08:17:20.607Z,219.67
2017-11-09T08:19:48.166Z,223.93
2017-11-09T08:22:15.676Z,201.00
2017-11-09T08:24:45.674Z,217.70
2017-11-09T08:27:14.983Z,211.40
2017-11-09T08:29:49.086Z,204.60
2017-11-09T08:32:20.598Z,208.53
2017-11-09T08:34:48.170Z,188.43
2017-11-09T08:37:15.689Z,168.60
2017-11-09T08:39:43.227Z,166.23
2017-11-09T08:42:10.801Z,204.23
2017-11-09T08:44:38.358Z,186.53
2017-11-09T08:47:05.885Z,234.57
2017-11-09T08:49:33.593Z,200.30
2017-11-09T08:52:01.127Z,214.43
2017-11-09T08:54:28.668Z,219.97
2017-11-09T08:56:56.418Z,219.37
2017-11-09T08:59:23.933Z,171.07
2017-11-09T09:01:51.449Z,191.73
2017-11-09T09:04:19.394Z,204.60
2017-11-09T09:06:47.870Z,181.93
2017-11-09T09:09:15.403Z,175.63
2017-11-09T09:11:42.961Z,155.90
2017-11-09T09:14:10.508Z,146.33
2017-11-09T09:16:38.182Z,170.53
2017-11-09T09:19:05.717Z,140.77
2017-11-09T09:21:35.863Z,135.30
2017-11-09T09:24:07.369Z,128.97
2017-11-09T09:26:49.823Z,122.67
2017-11-09T09:29:29.273Z,114.50
2017-11-09T09:31:56.822Z,111.30
2017-11-09T09:34:30.011Z,124.77
2017-11-09T09:37:05.600Z,123.83
2017-11-09T09:39:50.555Z,125.17
2017-11-09T09:42:18.221Z,122.53
2017-11-09T09:44:45.766Z,128.13
2017-11-09T09:47:13.307Z,133.87
2017-11-09T09:49:40.869Z,122.60
2017-11-09T09:52:08.413Z,121.47
2017-11-09T09:54:35.946Z,121.50
2017-11-09T09:57:04.027Z,132.03
2017-11-09T09:59:31.557Z,123.57
2017-11-09T10:01:59.077Z,128.47
2017-11-09T10:04:26.764Z,108.37
2017-11-09T10:06:54.300Z,111.03
2017-11-09T10:09:21.812Z,129.40
2017-11-09T10:11:49.579Z,114.33
2017-11-09T10:14:17.130Z,118.90
2017-11-09T10:16:44.669Z,117.93
2017-11-09T10:19:12.693Z,124.00
2017-11-09T10:21:40.218Z,124.83
2017-11-09T10:24:07.741Z,117.13
2017-11-09T10:26:35.281Z,130.80
2017-11-09T10:29:02.836Z,122.37
2017-11-09T10:31:30.366Z,132.07
2017-11-09T10:33:57.938Z,136.33
2017-11-09T10:36:25.498Z,113.80
2017-11-09T10:38:53.027Z,127.13
2017-11-09T10:41:20.946Z,123.03
2017-11-09T10:43:48.460Z,114.17
2017-11-09T10:46:15.987Z,131.70
2017-11-09T10:48:43.558Z,117.90
2017-11-09T10:51:11.133Z,137.60
2017-11-09T10:53:38.662Z,128.77
2017-11-09T10:56:06.211Z,127.77
2017-11-09T10:58:34.264Z,140.57
2017-11-09T11:01:01.789Z,126.60
2017-11-09T11:03:29.320Z,125.50
2017-11-09T11:05:56.894Z,125.10
2017-11-09T11:08:24.409Z,131.17
2017-11-09T11:10:51.942Z,123.33
2017-11-09T11:13:19.519Z,130.03
2017-11-09T11:15:47.046Z,110.73
2017-11-09T11:18:14.571Z,119.47
2017-11-09T11:20:42.145Z,124.73
2017-11-09T11:23:09.670Z,131.30
2017-11-09T11:25:37.206Z,118.20
2017-11-09T11:28:04.756Z,113.73
2017-11-09T11:30:32.518Z,125.83
2017-11-09T11:33:00.538Z,112.13
2017-11-09T11:35:28.166Z,135.13
2017-11-09T11:37:56.498Z,122.60
2017-11-09T11:40:24.110Z,129.27
2017-11-09T11:42:51.646Z,124.37
2017-11-09T11:45:19.195Z,125.20
2017-11-09T11:47:46.766Z,140.23
2017-11-09T11:50:14.285Z,121.97
2017-11-09T11:52:41.818Z,140.10
2017-11-09T11:55:09.872Z,132.30
2017-11-09T11:57:37.397Z,126.37
2017-11-09T12:00:04.934Z,122.23
2017-11-09T12:02:32.473Z,126.27
2017-11-09T12:05:00.823Z,112.07
2017-11-09T12:07:28.870Z,111.53
2017-11-09T12:09:56.390Z,125.73
2017-11-09T12:12:23.926Z,127.57
2017-11-09T12:14:51.474Z,131.37
2017-11-09T12:17:19.058Z,127.53
2017-11-09T12:19:46.590Z,140.60
2017-11-09T12:22:14.105Z,118.67
2017-11-09T12:24:41.787Z,126.93
2017-11-09T12:27:09.319Z,128.90
2017-11-09T12:29:36.926Z,107.67
2017-11-09T12:32:04.527Z,126.53
2017-11-09T12:34:32.054Z,112.00
2017-11-09T12:36:59.574Z,125.97
2017-11-09T12:39:27.121Z,120.93
2017-11-09T12:41:54.648Z,108.47
2017-11-09T12:44:22.200Z,105.20
2017-11-09T12:46:49.809Z,117.33
2017-11-09T12:49:17.344Z,109.80
2017-11-09T12:51:44.874Z,112.27
2017-11-09T12:54:12.433Z,112.87
2017-11-09T12:56:40.007Z,123.00
2017-11-09T12:59:07.535Z,112.87
2017-11-09T13:01:35.058Z,115.47
2017-11-09T13:04:02.736Z,110.30
2017-11-09T13:06:30.279Z,98.80
2017-11-09T13:08:57.815Z,117.43
2017-11-09T13:11:25.409Z,106.77
2017-11-09T13:13:52.966Z,118.10
2017-11-09T13:16:20.506Z,122.23
2017-11-09T13:18:48.125Z,120.80
2017-11-09T13:21:15.665Z,122.43
2017-11-09T13:23:43.217Z,118.57
2017-11-09T13:26:10.902Z,110.13
2017-11-09T13:28:38.420Z,113.83
2017-11-09T13:31:05.947Z,121.63
2017-11-09T13:33:33.736Z,111.33
2017-11-09T13:36:01.330Z,140.03
2017-11-09T13:38:28.857Z,107.30
2017-11-09T13:40:56.847Z,113.57
2017-11-09T13:43:24.384Z,115.27
2017-11-09T13:45:51.927Z,111.47
2017-11-09T13:48:19.483Z,121.00
2017-11-09T13:50:46.998Z,121.20
2017-11-09T13:53:14.569Z,118.40
2017-11-09T13:55:42.093Z,131.80
2017-11-09T13:58:09.627Z,124.17
2017-11-09T14:00:40.190Z,148.53
2017-11-09T14:03:07.726Z,115.27
2017-11-09T14:05:35.257Z,122.97
2017-11-09T14:08:02.834Z,120.10
2017-11-09T14:10:30.368Z,124.90
2017-11-09T14:12:57.893Z,137.93
2017-11-09T14:15:25.456Z,126.33
2017-11-09T14:17:52.996Z,115.90
2017-11-09T14:20:20.620Z,123.73
2017-11-09T14:22:48.138Z,137.70
2017-11-09T14:25:15.658Z,128.30
2017-11-09T14:27:43.283Z,136.87
2017-11-09T14:30:10.806Z,137.63
2017-11-09T14:32:38.321Z,127.50
2017-11-09T14:35:05.997Z,131.50
2017-11-09T14:37:33.518Z,146.47
2017-11-09T14:40:01.038Z,123.23
2017-11-09T14:42:28.943Z,136.33
2017-11-09T14:44:59.240Z,132.00
2017-11-09T14:47:26.764Z,123.37
2017-11-09T14:49:54.517Z,134.70
2017-11-09T14:52:22.047Z,139.13
2017-11-09T14:54:49.606Z,128.33
2017-11-09T14:57:17.349Z,124.00
2017-11-09T14:59:44.865Z,136.17
2017-11-09T15:02:12.402Z,130.03
2017-11-09T15:04:39.978Z,154.00
2017-11-09T15:07:07.506Z,137.67
2017-11-09T15:09:35.143Z,142.87
2017-11-09T15:12:03.089Z,132.80
2017-11-09T15:14:30.629Z,147.43
2017-11-09T15:16:58.515Z,138.27
2017-11-09T15:19:26.123Z,145.20
2017-11-09T15:21:53.654Z,155.50
2017-11-09T15:24:22.142Z,137.80
2017-11-09T15:26:49.677Z,157.60
2017-11-09T15:29:17.230Z,147.50
2017-11-09T15:31:47.614Z,124.90
2017-11-09T15:34:15.171Z,138.27
2017-11-09T15:36:42.749Z,138.77
2017-11-09T15:39:10.282Z,133.27
2017-11-09T15:41:37.818Z,139.13
2017-11-09T15:44:05.530Z,134.53
2017-11-09T15:46:33.075Z,134.87
2017-11-09T15:49:00.598Z,139.60
2017-11-09T15:51:28.553Z,129.10
2017-11-09T15:53:56.080Z,145.10
2017-11-09T15:56:23.614Z,147.77
2017-11-09T15:58:51.377Z,131.40
2017-11-09T16:01:18.896Z,137.43
2017-11-09T16:03:46.417Z,148.20
2017-11-09T16:06:14.718Z,134.93
2017-11-09T16:08:42.242Z,140.03
2017-11-09T16:11:09.776Z,149.87
2017-11-09T16:13:37.426Z,139.97
2017-11-09T16:16:04.953Z,141.77
2017-11-09T16:18:38.835Z,142.27
2017-11-09T16:21:06.374Z,142.73
2017-11-09T16:23:33.920Z,155.70
2017-11-09T16:26:01.507Z,148.43
2017-11-09T16:28:29.037Z,141.47
2017-11-09T16:30:56.562Z,143.67
2017-11-09T16:33:24.541Z,138.23
2017-11-09T16:35:52.074Z,148.23
2017-11-09T16:38:19.606Z,156.93
2017-11-09T16:40:47.189Z,152.63
2017-11-09T16:43:14.717Z,159.70
2017-11-09T16:45:42.657Z,129.43
2017-11-09T16:48:10.208Z,144.37
2017-11-09T16:50:37.732Z,143.00
2017-11-09T16:53:07.202Z,133.27
2017-11-09T16:55:34.720Z,138.30
2017-11-09T16:58:02.240Z,157.47
2017-11-09T17:00:29.813Z,136.30
2017-11-09T17:02:57.342Z,148.37
2017-11-09T17:05:26.601Z,128.83
2017-11-09T17:07:54.180Z,147.13
2017-11-09T17:10:21.716Z,192.10
2017-11-09T17:12:49.256Z,153.50
2017-11-09T17:15:21.035Z,138.57
2017-11-09T17:17:48.549Z,148.90
2017-11-09T17:20:16.070Z,126.27
2017-11-09T17:22:43.634Z,144.70
2017-11-09T17:25:11.174Z,203.07
2017-11-09T17:27:38.737Z,213.97
2017-11-09T17:30:06.310Z,155.67
2017-11-09T17:32:33.832Z,135.13
2017-11-09T17:35:01.380Z,123.73
2017-11-09T17:37:29.832Z,133.03
2017-11-09T17:39:57.389Z,139.47
2017-11-09T17:42:26.898Z,129.70
2017-11-09T17:44:54.425Z,139.77
2017-11-09T17:47:21.986Z,168.70
2017-11-09T17:49:49.684Z,142.53
2017-11-09T17:52:17.204Z,126.73
2017-11-09T17:54:44.736Z,139.57
2017-11-09T17:57:12.489Z,127.27
2017-11-09T17:59:42.022Z,124.50
2017-11-09T18:02:09.557Z,148.47
2017-11-09T18:04:37.125Z,150.13
2017-11-09T18:07:04.667Z,139.83
2017-11-09T18:09:32.189Z,139.93
2017-11-09T18:11:59.765Z,133.90
2017-11-09T18:14:27.298Z,148.77
2017-11-09T18:16:54.845Z,124.87
2017-11-09T18:19:22.390Z,137.00
2017-11-09T18:21:49.910Z,137.73
2017-11-09T18:24:17.500Z,124.63
2017-11-09T18:26:45.034Z,117.33
2017-11-09T18:29:12.559Z,120.17
2017-11-09T18:31:42.435Z,115.00
2017-11-09T18:34:09.953Z,119.63
2017-11-09T18:36:37.497Z,112.47
2017-11-09T18:39:05.092Z,93.07
2017-11-09T18:41:32.608Z,105.13
2017-11-09T18:44:00.196Z,106.10
2017-11-09T18:46:27.734Z,106.40
2017-11-09T18:48:55.306Z,103.93
2017-11-09T18:51:22.853Z,115.47
2017-11-09T18:53:50.379Z,85.53
2017-11-09T18:56:18.033Z,87.43
2017-11-09T18:58:46.425Z,92.20
2017-11-09T19:01:13.946Z,96.13
2017-11-09T19:03:41.681Z,84.43
2017-11-09T19:06:09.330Z,81.07
2017-11-09T19:08:37.008Z,87.50
2017-11-09T19:11:04.611Z,79.63
2017-11-09T19:13:32.141Z,74.40
2017-11-09T19:15:59.667Z,70.37
2017-11-09T19:18:27.749Z,69.13
2017-11-09T19:20:55.311Z,62.63
2017-11-09T19:23:22.834Z,73.10
2017-11-09T19:25:51.365Z,73.47
2017-11-09T19:28:19.002Z,77.87
2017-11-09T19:30:46.535Z,77.60
2017-11-09T19:33:14.691Z,72.67
2017-11-09T19:35:44.706Z,80.53
2017-11-09T19:38:12.529Z,74.67
2017-11-09T19:40:41.544Z,75.87
2017-11-09T19:43:12.011Z,76.47
2017-11-09T19:45:39.652Z,72.63
2017-11-09T19:48:07.509Z,78.23
2017-11-09T19:50:36.042Z,70.93
2017-11-09T19:53:03.591Z,78.03
2017-11-09T19:55:31.102Z,77.53
2017-11-09T19:57:58.809Z,81.53
2017-11-09T20:00:26.335Z,82.03
2017-11-09T20:02:54.016Z,79.00
2017-11-09T20:05:22.209Z,97.20
2017-11-09T20:07:49.868Z,81.67
2017-11-09T20:10:17.563Z,76.77
2017-11-09T20:12:45.556Z,74.67
2017-11-09T20:15:13.081Z,75.83
2017-11-09T20:17:40.588Z,71.37
2017-11-09T20:20:08.146Z,73.67
2017-11-09T20:22:35.710Z,77.93
2017-11-09T20:25:03.229Z,85.10
2017-11-09T20:27:30.758Z,80.77
2017-11-09T20:29:58.410Z,77.27
2017-11-09T20:32:25.946Z,87.40
2017-11-09T20:34:53.551Z,87.43
2017-11-09T20:37:21.457Z,90.93
2017-11-09T20:39:51.389Z,84.47
2017-11-09T20:42:18.906Z,103.80
2017-11-09T20:44:46.931Z,93.73
2017-11-09T20:47:14.456Z,99.13
2017-11-09T20:49:41.985Z,90.73
2017-11-09T20:52:09.691Z,88.30
2017-11-09T20:54:37.215Z,98.90
2017-11-09T20:57:04.763Z,83.57
2017-11-09T20:59:32.878Z,101.57
2017-11-09T21:02:00.403Z,93.27
2017-11-09T21:04:27.935Z,93.10
2017-11-09T21:06:55.702Z,98.77
2017-11-09T21:09:23.253Z,130.50
2017-11-09T21:11:50.783Z,101.30
2017-11-09T21:14:18.530Z,118.43
2017-11-09T21:16:46.332Z,124.87
2017-11-09T21:19:13.866Z,121.97
2017-11-09T21:21:41.450Z,105.67
2017-11-09T21:24:09.009Z,114.33
2017-11-09T21:26:36.536Z,105.60
2017-11-09T21:29:04.089Z,101.50
2017-11-09T21:31:31.645Z,105.70
2017-11-09T21:33:59.169Z,108.30
2017-11-09T21:36:26.886Z,96.97
2017-11-09T21:38:54.419Z,105.13
2017-11-09T21:41:21.936Z,106.57
2017-11-09T21:43:49.701Z,113.03
2017-11-09T21:46:17.226Z,119.03
2017-11-09T21:48:44.738Z,99.63
2017-11-09T21:51:12.293Z,106.53
2017-11-09T21:53:39.865Z,121.83
2017-11-09T21:56:07.384Z,111.23
2017-11-09T21:58:34.917Z,112.03
2017-11-09T22:01:02.613Z,119.53
2017-11-09T22:03:30.147Z,121.07
2017-11-09T22:05:57.681Z,120.03
2017-11-09T22:08:25.642Z,111.73
2017-11-09T22:10:53.160Z,124.70
2017-11-09T22:13:20.717Z,114.33
2017-11-09T22:15:48.271Z,127.10
2017-11-09T22:18:15.833Z,121.70
2017-11-09T22:20:43.352Z,111.13
2017-11-09T22:23:11.006Z,138.83
2017-11-09T22:25:38.526Z,113.17
2017-11-09T22:28:06.060Z,118.13
2017-11-09T22:30:33.796Z,112.40
2017-11-09T22:33:01.321Z,111.03
2017-11-09T22:35:28.908Z,129.20
2017-11-09T22:37:56.464Z,136.63
2017-11-09T22:40:23.987Z,122.23
2017-11-09T22:42:51.585Z,126.17
2017-11-09T22:45:19.121Z,134.07
2017-11-09T22:47:46.659Z,115.53
2017-11-09T22:50:14.286Z,104.30
2017-11-09T22:52:42.062Z,118.40
2017-11-09T22:55:09.588Z,112.73
2017-11-09T22:57:37.176Z,136.30
2017-11-09T23:00:04.756Z,130.27
2017-11-09T23:02:32.282Z,128.73
2017-11-09T23:04:59.824Z,130.13
2017-11-09T23:07:27.346Z,132.07
2017-11-09T23:09:55.034Z,126.40
2017-11-09T23:12:22.577Z,129.37
2017-11-09T23:14:50.103Z,116.63
2017-11-09T23:17:17.684Z,125.77
2017-11-09T23:19:45.205Z,144.40
2017-11-09T23:22:12.722Z,140.97
2017-11-09T23:24:40.308Z,136.13
2017-11-09T23:27:07.870Z,136.37
2017-11-09T23:29:39.170Z,152.07
2017-11-09T23:32:06.835Z,134.43
2017-11-09T23:34:34.357Z,140.90
2017-11-09T23:37:01.881Z,127.27
2017-11-09T23:39:29.647Z,122.50
2017-11-09T23:41:57.173Z,128.73
2017-11-09T23:44:24.695Z,112.77
2017-11-09T23:46:52.294Z,115.13
2017-11-09T23:49:19.826Z,102.87
2017-11-09T23:51:47.359Z,107.37
2017-11-09T23:54:14.937Z,113.50
2017-11-09T23:56:42.458Z,96.80
2017-11-09T23:59:09.987Z,107.13
